Terminal Aerodrome Forecast
Issued by NWS Louisville, KY

Home | Current Version | Previous Version | Text Only | Print | Product List | Glossary On
Versions: 1 2 3 4 5 6 7 8 9 10 11 12 13 14 15 16 17 18 19 20 21 22
000
FTUS43 KLMK 031700 CCA
TAFBWG
TAF COR
KBWG 031730Z 0318/0418 VRB03KT P6SM OVC024
     FM032000 05004KT P6SM BKN035
     FM040100 00000KT P6SM SKC
     FM040900 00000KT 4SM BR SCT008
     FM041400 VRB03KT P6SM SCT040=

USA.gov is the U.S. government's official web portal to all federal, state and local government web resources and services.